• Join FlightAware (Why Join?)
  • Login
  • US Flag 
07:22AM EDT


 

Airport Tracker/Info


-or-


 

Live Flight TrackerFlight Track Log ✈ N675MC ✈ 18-Sep-2013 ✈ KSAV - KATL

Flight Track Log - Related Links

Times and Time Zones

All times are in EDT time to prevent confusion due to time zone crossing. See the N675MC flight status page for this flight to view local times or setup timezone preferences in your user account.

Time Position Orientation Groundspeed Altitude Reporting Facility
EDT Latitude Longitude Course Direction KTS MPH feet Rate Location/Type
10:32AM 32.1839 -81.1597 274° West 196 226 4,400  Level Jacksonville Center
10:33AM 32.2952 -81.5468 288° West  Level Estimated
10:33AM 32.2203 -81.2325 301° West 219 252 7,300  Level Jacksonville Center
10:34AM 32.3370 -81.6331 287° West  Level Estimated
10:34AM 32.2653 -81.3178 302° West 272 313 10,100  Level Jacksonville Center
10:35AM 32.3432 -81.7324 274° West  Level FlightAware Approximate
10:35AM 32.3122 -81.4078 302° West 305 351 11,400  Level Jacksonville Center
10:36AM 32.3487 -81.8197 274° West  Level FlightAware Approximate
10:36AM 32.3592 -81.4908 304° West 334 384 13,800  Level Jacksonville Center
10:37AM 32.3942 -81.6822 282° West 360 414 16,700 1,800 Climbing Atlanta Center
10:38AM 32.4067 -81.8000 277° West 367 422 18,700 1,800 Climbing Atlanta Center
10:39AM 32.4236 -81.9250 279° West 375 432 20,400 1,560 Climbing Atlanta Center
10:40AM 32.4444 -82.0525 281° West 388 447 21,900 720 Climbing Atlanta Center
10:41AM 32.4653 -82.1850 281° West 407 468 21,900  Level Atlanta Center
10:42AM 32.4819 -82.3325 278° West 428 493 22,000  Climbing Atlanta Center
10:43AM 32.5047 -82.4725 281° West 437 503 22,000  Level Atlanta Center
10:44AM 32.5378 -82.6097 286° West 437 503 22,000  Level Atlanta Center
10:45AM 32.5642 -82.7475 283° West 431 496 22,000  Level Atlanta Center
10:46AM 32.5825 -82.8900 279° West 431 496 22,000 -60 Level Atlanta Center
10:47AM 32.6708 -82.9875 317° Northwest 416 479 21,900  Descending Atlanta Center
10:48AM 32.7489 -83.0906 312° West 416 479 22,000  Climbing Atlanta Center
10:49AM 32.8228 -83.2008 309° West 422 486 22,000 -60 Level Atlanta Center
10:50AM 32.8925 -83.3164 306° West 422 486 21,900 -1,020 Descending Atlanta Center
10:51AM 32.9642 -83.4272 308° West 429 494 20,000 -2,100 Descending Atlanta Center
10:52AM 33.0397 -83.5283 312° West 429 494 17,800 -2,100 Descending Atlanta Center
10:53AM 33.1089 -83.6344 308° West 415 478 15,800 -1,920 Descending Atlanta Center
10:54AM 33.1822 -83.7508 307° West 409 471 14,000 -900 Descending Atlanta Center
10:55AM 33.2472 -83.8525 307° West 402 463 14,000 -480 Level Atlanta Center
10:56AM 33.3100 -83.9567 306° West 394 453 13,100 -1,020 Descending Atlanta Center
10:57AM 33.3664 -84.0561 304° West 377 434 12,000 -540 Descending Atlanta Center
10:58AM 33.4167 -84.1333 308° West 316 364 12,100  Climbing Atlanta TRACON
10:59AM 33.4667 -84.2000 312° West 281 323 12,100  Level Atlanta TRACON
11:00AM 33.5167 -84.2667 312° West 245 282 12,100 -540 Level Atlanta TRACON
11:01AM 33.5333 -84.3500 284° West 264 304 11,100 -1,320 Descending Atlanta TRACON
11:02AM 33.5264 -84.4300 264° West 241 277 9,400 -2,040 Descending Atlanta Center
11:04AM 33.5333 -84.6000 273° West 230 265 4,800 -2,160 Descending Atlanta TRACON
11:05AM 33.5333 -84.6667 270° West 241 277 3,000 -900 Descending Atlanta TRACON
11:06AM 33.5667 -84.7167 309° West 209 241 3,000  Level Atlanta TRACON
11:07AM 33.6000 -84.7000 23° Northeast 171 197 3,100  Climbing Atlanta TRACON
11:08AM 33.6167 -84.6500 68° East 158 182 3,000 -60 Descending Atlanta TRACON
11:09AM 33.6167 -84.6000 90° East 160 184 3,000 -120 Level Atlanta TRACON
11:10AM 33.6167 -84.5500 90° East 158 182 2,800 -600 Descending Atlanta TRACON
11:11AM 33.6167 -84.5000 90° East 138 159 1,800 -840 Descending Atlanta TRACON
11:12AM 33.6167 -84.4500 90° East 133 153 1,100 -720 Descending Atlanta TRACON